createdAt,value
2023-02-11T00:00:22.126Z,99484.00
2023-02-11T00:05:44.951Z,99489.91
2023-02-11T00:11:07.488Z,99451.59
2023-02-11T00:16:30.197Z,99479.34
2023-02-11T00:21:52.306Z,99465.75
2023-02-11T00:27:14.568Z,99477.56
2023-02-11T00:32:43.245Z,99487.44
2023-02-11T00:38:08.556Z,99430.34
2023-02-11T00:43:30.951Z,99475.91
2023-02-11T00:48:55.681Z,99478.25
2023-02-11T00:54:17.285Z,99449.53
2023-02-11T00:59:39.482Z,99455.09
2023-02-11T01:05:02.328Z,99452.81
2023-02-11T01:10:24.606Z,99452.59
2023-02-11T01:15:51.067Z,99451.72
2023-02-11T01:21:13.487Z,99459.34
2023-02-11T01:26:35.759Z,99476.44
2023-02-11T01:31:58.077Z,99473.81
2023-02-11T01:37:20.848Z,99472.09
2023-02-11T01:42:44.087Z,99460.53
2023-02-11T01:48:06.290Z,99459.84
2023-02-11T01:53:48.825Z,99465.28
2023-02-11T01:59:28.648Z,99455.81
2023-02-11T02:05:08.269Z,99470.69
2023-02-11T02:10:38.729Z,99486.53
2023-02-11T02:16:13.887Z,99511.91
2023-02-11T02:22:24.325Z,99514.91
2023-02-11T02:28:20.035Z,99515.06
2023-02-11T02:33:58.861Z,99500.97
2023-02-11T02:39:35.124Z,99491.63
2023-02-11T02:44:57.413Z,99480.97
2023-02-11T02:50:28.245Z,99515.31
2023-02-11T02:56:19.004Z,99533.41
2023-02-11T03:02:21.230Z,99530.19
2023-02-11T03:08:19.174Z,99508.38
2023-02-11T03:13:43.825Z,99519.72
2023-02-11T03:19:25.470Z,99498.75
2023-02-11T03:24:50.715Z,99513.31
2023-02-11T03:30:19.407Z,99509.22
2023-02-11T03:36:22.464Z,99514.88
2023-02-11T03:41:50.034Z,99528.00
2023-02-11T03:47:17.947Z,99508.47
2023-02-11T03:52:40.924Z,99528.56
2023-02-11T03:58:03.109Z,99531.00
2023-02-11T04:03:25.307Z,99528.56
2023-02-11T04:08:47.292Z,99529.16
2023-02-11T04:14:09.464Z,99519.72
2023-02-11T04:19:31.287Z,99533.84
2023-02-11T04:24:53.359Z,99528.56
2023-02-11T04:30:15.221Z,99536.63
2023-02-11T04:35:37.528Z,99524.91
2023-02-11T04:41:01.090Z,99526.16
2023-02-11T04:46:23.185Z,99542.72
2023-02-11T04:51:49.542Z,99540.69
2023-02-11T04:57:11.499Z,99551.16
2023-02-11T05:02:33.771Z,99557.00
2023-02-11T05:07:55.421Z,99560.25
2023-02-11T05:13:17.389Z,99544.25
2023-02-11T05:18:40.864Z,99560.38
2023-02-11T05:24:02.794Z,99531.34
2023-02-11T05:29:24.787Z,99555.09
2023-02-11T05:34:46.609Z,99576.09
2023-02-11T05:40:10.129Z,99580.91
2023-02-11T05:45:32.689Z,99588.19
2023-02-11T05:50:55.410Z,99575.91
2023-02-11T05:56:17.941Z,99578.78
2023-02-11T06:01:39.525Z,99576.03
2023-02-11T06:07:01.567Z,99582.63
2023-02-11T06:12:23.526Z,99592.31
2023-02-11T06:17:45.653Z,99589.22
2023-02-11T06:23:07.853Z,99591.88
2023-02-11T06:28:31.924Z,99602.34
2023-02-11T06:33:55.488Z,99608.63
2023-02-11T06:39:17.765Z,99616.84
2023-02-11T06:44:39.748Z,99615.34
2023-02-11T06:50:01.668Z,99622.13
2023-02-11T06:55:25.203Z,99603.66
2023-02-11T07:00:49.871Z,99613.25
2023-02-11T07:06:18.550Z,99649.16
2023-02-11T07:11:41.265Z,99651.59
2023-02-11T07:17:05.328Z,99648.94
2023-02-11T07:22:31.088Z,99653.00
2023-02-11T07:27:53.724Z,99613.91
2023-02-11T07:33:15.750Z,99644.16
2023-02-11T07:38:38.969Z,99618.72
2023-02-11T07:44:03.778Z,99618.72
2023-02-11T07:49:26.274Z,99650.94
2023-02-11T07:54:49.348Z,99643.91
2023-02-11T08:00:12.578Z,99634.78
2023-02-11T08:05:34.706Z,99635.25
2023-02-11T08:10:56.429Z,99653.88
2023-02-11T08:16:30.440Z,99656.88
2023-02-11T08:21:57.194Z,99647.56
2023-02-11T08:27:19.207Z,99651.81
2023-02-11T08:32:42.063Z,99643.19
2023-02-11T08:38:04.392Z,99640.13
2023-02-11T08:43:26.298Z,99620.88
2023-02-11T08:48:48.553Z,99641.59
2023-02-11T08:54:11.360Z,99623.66
2023-02-11T08:59:34.087Z,99638.78
2023-02-11T09:04:55.823Z,99633.13
2023-02-11T09:10:18.121Z,99627.38
2023-02-11T09:15:40.592Z,99613.66
2023-02-11T09:21:04.302Z,99599.38
2023-02-11T09:26:29.063Z,99598.75
2023-02-11T09:31:51.396Z,99578.16
2023-02-11T09:37:14.444Z,99592.53
2023-02-11T09:43:03.070Z,99587.31
2023-02-11T09:48:26.564Z,99564.38
2023-02-11T09:53:51.963Z,99576.63
2023-02-11T09:59:18.392Z,99579.94
2023-02-11T10:05:14.107Z,99583.84
2023-02-11T10:10:53.609Z,99573.19
2023-02-11T10:16:57.146Z,99590.03
2023-02-11T10:22:32.180Z,99573.69
2023-02-11T10:27:59.039Z,99582.19
2023-02-11T10:33:31.091Z,99559.66
2023-02-11T10:38:53.744Z,99566.78
2023-02-11T10:44:31.966Z,99564.34
2023-02-11T10:49:54.288Z,99570.13
2023-02-11T10:55:50.327Z,99566.56
2023-02-11T11:01:24.440Z,99559.41
2023-02-11T11:06:47.574Z,99549.41
2023-02-11T11:12:46.235Z,99541.00
2023-02-11T11:18:22.500Z,99518.53
2023-02-11T11:23:54.614Z,99538.81
2023-02-11T11:29:19.696Z,99544.34
2023-02-11T11:34:44.650Z,99531.66
2023-02-11T11:40:18.092Z,99488.72
2023-02-11T11:45:40.860Z,99531.06
2023-02-11T11:51:06.753Z,99517.25
2023-02-11T11:56:35.399Z,99482.06
2023-02-11T12:02:23.768Z,99501.97
2023-02-11T12:07:51.982Z,99503.47
2023-02-11T12:13:19.708Z,99500.25
2023-02-11T12:19:03.521Z,99499.91
2023-02-11T12:24:56.326Z,99482.63
2023-02-11T12:30:45.088Z,99486.91
2023-02-11T12:36:39.648Z,99471.84
2023-02-11T12:42:38.132Z,99461.69
2023-02-11T12:48:13.516Z,99439.63
2023-02-11T12:53:56.063Z,99445.03
2023-02-11T12:59:44.740Z,99443.75
2023-02-11T13:05:34.422Z,99419.47
2023-02-11T13:11:00.007Z,99440.25
2023-02-11T13:16:45.239Z,99430.63
2023-02-11T13:22:20.244Z,99429.69
2023-02-11T13:28:19.249Z,99418.97
2023-02-11T13:33:46.251Z,99411.72
2023-02-11T13:39:23.768Z,99401.47
2023-02-11T13:44:45.603Z,99401.00
2023-02-11T13:50:11.089Z,99389.19
2023-02-11T13:55:34.016Z,99358.13
2023-02-11T14:00:56.372Z,99350.56
2023-02-11T14:06:44.468Z,99351.72
2023-02-11T14:12:31.060Z,99350.66
2023-02-11T14:17:53.146Z,99314.59
2023-02-11T14:23:25.247Z,99315.38
2023-02-11T14:29:24.839Z,99316.22
2023-02-11T14:35:03.006Z,99302.19
2023-02-11T14:40:46.633Z,99273.59
2023-02-11T14:46:10.924Z,99246.25
2023-02-11T14:51:37.352Z,99229.94
2023-02-11T14:57:20.815Z,99283.94
2023-02-11T15:02:45.845Z,99230.19
2023-02-11T15:08:15.954Z,99226.34
2023-02-11T15:13:42.628Z,99247.41
2023-02-11T15:19:09.477Z,99225.59
2023-02-11T15:24:33.913Z,99201.78
2023-02-11T15:29:56.118Z,99190.56
2023-02-11T15:35:19.438Z,99196.28
2023-02-11T15:40:41.540Z,99183.31
2023-02-11T15:46:09.665Z,99190.56
2023-02-11T15:51:37.546Z,99154.59
2023-02-11T15:57:08.037Z,99173.91
2023-02-11T16:02:33.805Z,99162.53
2023-02-11T16:07:57.425Z,99156.22
2023-02-11T16:13:21.044Z,99149.09
2023-02-11T16:19:03.431Z,99132.78
2023-02-11T16:24:30.948Z,99127.75
2023-02-11T16:29:53.787Z,99115.00
2023-02-11T16:35:16.275Z,99116.47
2023-02-11T16:40:38.183Z,99110.19
2023-02-11T16:46:00.192Z,99080.34
2023-02-11T16:51:22.889Z,99107.88
2023-02-11T16:56:45.849Z,99104.44
2023-02-11T17:02:23.873Z,99071.38
2023-02-11T17:07:46.432Z,99084.81
2023-02-11T17:13:08.601Z,99084.22
2023-02-11T17:18:32.824Z,99091.69
2023-02-11T17:23:57.722Z,99066.25
2023-02-11T17:29:22.903Z,99053.16
2023-02-11T17:34:44.983Z,99054.22
2023-02-11T17:40:08.524Z,99044.56
2023-02-11T17:45:30.546Z,99036.06
2023-02-11T17:50:52.864Z,99031.72
2023-02-11T17:56:15.449Z,99031.72
2023-02-11T18:01:39.375Z,99035.16
2023-02-11T18:07:01.811Z,99018.72
2023-02-11T18:12:27.080Z,98993.75
2023-02-11T18:17:49.387Z,98984.44
2023-02-11T18:23:11.783Z,98974.91
2023-02-11T18:28:34.526Z,98969.28
2023-02-11T18:33:56.511Z,98960.25
2023-02-11T18:39:19.988Z,98948.31
2023-02-11T18:44:41.870Z,98907.97
2023-02-11T18:50:04.367Z,98938.69
2023-02-11T18:55:26.487Z,98925.06
2023-02-11T19:00:49.391Z,98909.56
2023-02-11T19:06:25.869Z,98896.63
2023-02-11T19:11:48.415Z,98890.56
2023-02-11T19:17:13.024Z,98866.03
2023-02-11T19:22:34.946Z,98866.72
2023-02-11T19:27:57.020Z,98865.66
2023-02-11T19:33:19.178Z,98870.59
2023-02-11T19:38:41.468Z,98852.03
2023-02-11T19:44:05.731Z,98841.72
2023-02-11T19:49:28.486Z,98852.13
2023-02-11T19:54:50.546Z,98847.44
2023-02-11T20:00:13.251Z,98836.31
2023-02-11T20:05:39.781Z,98795.78
2023-02-11T20:11:10.826Z,98812.25
2023-02-11T20:16:47.418Z,98815.94
2023-02-11T20:22:11.026Z,98822.66
2023-02-11T20:27:33.867Z,98814.50
2023-02-11T20:32:56.232Z,98790.03
2023-02-11T20:38:18.542Z,98797.88
2023-02-11T20:43:42.151Z,98759.66
2023-02-11T20:49:05.743Z,98783.66
2023-02-11T20:54:27.683Z,98763.53
2023-02-11T20:59:49.582Z,98771.50
2023-02-11T21:05:12.681Z,98777.44
2023-02-11T21:10:34.662Z,98774.25
2023-02-11T21:15:57.967Z,98740.25
2023-02-11T21:21:21.071Z,98742.66
2023-02-11T21:26:43.537Z,98746.66
2023-02-11T21:32:05.828Z,98742.66
2023-02-11T21:37:27.952Z,98743.56
2023-02-11T21:42:50.311Z,98748.44
2023-02-11T21:48:13.853Z,98738.94
2023-02-11T21:53:39.845Z,98724.38
2023-02-11T21:59:02.426Z,98740.94
2023-02-11T22:04:24.559Z,98722.75
2023-02-11T22:09:46.294Z,98731.34
2023-02-11T22:15:09.185Z,98734.88
2023-02-11T22:20:31.142Z,98725.38
2023-02-11T22:25:53.334Z,98717.22
2023-02-11T22:31:19.074Z,98696.72
2023-02-11T22:36:42.306Z,98719.59
2023-02-11T22:42:04.285Z,98714.00
2023-02-11T22:47:26.588Z,98700.47
2023-02-11T22:52:48.646Z,98707.13
2023-02-11T22:58:11.181Z,98699.53
2023-02-11T23:03:35.052Z,98681.38
2023-02-11T23:08:57.375Z,98691.78
2023-02-11T23:14:19.468Z,98686.28
2023-02-11T23:19:41.549Z,98669.25
2023-02-11T23:25:03.903Z,98667.63
2023-02-11T23:30:26.185Z,98683.38
2023-02-11T23:35:48.422Z,98691.16
2023-02-11T23:41:11.029Z,98677.00
2023-02-11T23:46:33.160Z,98692.75
2023-02-11T23:51:57.928Z,98677.06
2023-02-11T23:57:19.987Z,98682.66
